sensor_id;sensor_type;location;lat;lon;timestamp;temperature;humidity
13652;DHT22;6899;51.546;6.912;2023-02-26T00:00:00;-2.60;99.90
13652;DHT22;6899;51.546;6.912;2023-02-26T00:02:28;-2.60;99.90
13652;DHT22;6899;51.546;6.912;2023-02-26T00:04:55;-2.60;99.90
13652;DHT22;6899;51.546;6.912;2023-02-26T00:07:22;-2.50;99.90
13652;DHT22;6899;51.546;6.912;2023-02-26T00:09:53;-2.40;99.90
13652;DHT22;6899;51.546;6.912;2023-02-26T00:12:21;-2.20;99.90
13652;DHT22;6899;51.546;6.912;2023-02-26T00:14:48;-2.00;99.90
13652;DHT22;6899;51.546;6.912;2023-02-26T00:17:36;-1.80;99.90
13652;DHT22;6899;51.546;6.912;2023-02-26T00:20:08;-1.60;99.90
13652;DHT22;6899;51.546;6.912;2023-02-26T00:22:36;-1.50;99.90
13652;DHT22;6899;51.546;6.912;2023-02-26T00:25:05;-1.40;99.90
13652;DHT22;6899;51.546;6.912;2023-02-26T00:27:32;-1.30;99.90
13652;DHT22;6899;51.546;6.912;2023-02-26T00:29:59;-1.20;99.90
13652;DHT22;6899;51.546;6.912;2023-02-26T00:32:27;-1.10;99.90
13652;DHT22;6899;51.546;6.912;2023-02-26T00:34:56;-1.00;99.90
13652;DHT22;6899;51.546;6.912;2023-02-26T00:37:35;-1.00;99.90
13652;DHT22;6899;51.546;6.912;2023-02-26T00:40:13;-1.10;99.90
13652;DHT22;6899;51.546;6.912;2023-02-26T00:42:42;-1.10;99.90
13652;DHT22;6899;51.546;6.912;2023-02-26T00:45:11;-1.10;99.90
13652;DHT22;6899;51.546;6.912;2023-02-26T00:47:43;-1.10;99.90
13652;DHT22;6899;51.546;6.912;2023-02-26T00:50:18;-1.20;99.90
13652;DHT22;6899;51.546;6.912;2023-02-26T00:53:00;-1.20;99.90
13652;DHT22;6899;51.546;6.912;2023-02-26T00:55:29;-1.10;99.90
13652;DHT22;6899;51.546;6.912;2023-02-26T00:57:56;-1.10;99.90
13652;DHT22;6899;51.546;6.912;2023-02-26T01:00:23;-1.20;99.90
13652;DHT22;6899;51.546;6.912;2023-02-26T01:02:50;-1.20;99.90
13652;DHT22;6899;51.546;6.912;2023-02-26T01:05:20;-1.20;99.90
13652;DHT22;6899;51.546;6.912;2023-02-26T01:07:53;-1.20;99.90
13652;DHT22;6899;51.546;6.912;2023-02-26T01:10:24;-1.20;99.90
13652;DHT22;6899;51.546;6.912;2023-02-26T01:12:51;-1.20;99.90
13652;DHT22;6899;51.546;6.912;2023-02-26T01:15:19;-1.20;99.90
13652;DHT22;6899;51.546;6.912;2023-02-26T01:17:50;-1.30;99.90
13652;DHT22;6899;51.546;6.912;2023-02-26T01:20:27;-1.40;99.90
13652;DHT22;6899;51.546;6.912;2023-02-26T01:22:59;-1.60;99.90
13652;DHT22;6899;51.546;6.912;2023-02-26T01:25:31;-1.70;99.90
13652;DHT22;6899;51.546;6.912;2023-02-26T01:28:02;-1.80;99.90
13652;DHT22;6899;51.546;6.912;2023-02-26T01:30:29;-1.90;99.90
13652;DHT22;6899;51.546;6.912;2023-02-26T01:33:01;-2.00;99.90
13652;DHT22;6899;51.546;6.912;2023-02-26T01:35:40;-2.20;99.90
13652;DHT22;6899;51.546;6.912;2023-02-26T01:38:15;-2.30;99.90
13652;DHT22;6899;51.546;6.912;2023-02-26T01:41:26;-2.30;99.90
13652;DHT22;6899;51.546;6.912;2023-02-26T01:44:08;-2.40;99.90
13652;DHT22;6899;51.546;6.912;2023-02-26T01:46:50;-2.50;99.90
13652;DHT22;6899;51.546;6.912;2023-02-26T01:49:21;-2.40;99.90
13652;DHT22;6899;51.546;6.912;2023-02-26T01:51:51;-2.50;99.90
13652;DHT22;6899;51.546;6.912;2023-02-26T01:54:20;-2.50;99.90
13652;DHT22;6899;51.546;6.912;2023-02-26T01:56:49;-2.50;99.90
13652;DHT22;6899;51.546;6.912;2023-02-26T01:59:18;-2.50;99.90
13652;DHT22;6899;51.546;6.912;2023-02-26T02:01:49;-2.60;99.90
13652;DHT22;6899;51.546;6.912;2023-02-26T02:04:16;-2.70;99.90
13652;DHT22;6899;51.546;6.912;2023-02-26T02:06:43;-2.80;99.90
13652;DHT22;6899;51.546;6.912;2023-02-26T02:09:12;-2.70;99.90
13652;DHT22;6899;51.546;6.912;2023-02-26T02:11:47;-2.80;99.90
13652;DHT22;6899;51.546;6.912;2023-02-26T02:14:25;-2.80;99.90
13652;DHT22;6899;51.546;6.912;2023-02-26T02:16:59;-2.80;99.90
13652;DHT22;6899;51.546;6.912;2023-02-26T02:19:48;-2.80;99.90
13652;DHT22;6899;51.546;6.912;2023-02-26T02:22:45;-2.80;99.90
13652;DHT22;6899;51.546;6.912;2023-02-26T02:25:36;-2.80;99.90
13652;DHT22;6899;51.546;6.912;2023-02-26T02:28:19;-2.80;99.90
13652;DHT22;6899;51.546;6.912;2023-02-26T02:31:06;-3.00;99.90
13652;DHT22;6899;51.546;6.912;2023-02-26T02:33:43;-3.00;99.90
13652;DHT22;6899;51.546;6.912;2023-02-26T02:36:21;-3.00;99.90
13652;DHT22;6899;51.546;6.912;2023-02-26T02:38:54;-3.00;99.90
13652;DHT22;6899;51.546;6.912;2023-02-26T02:41:27;-3.10;99.90
13652;DHT22;6899;51.546;6.912;2023-02-26T02:44:06;-3.20;99.90
13652;DHT22;6899;51.546;6.912;2023-02-26T02:46:38;-3.20;99.90
13652;DHT22;6899;51.546;6.912;2023-02-26T02:49:10;-3.30;99.90
13652;DHT22;6899;51.546;6.912;2023-02-26T02:51:55;-3.20;99.90
13652;DHT22;6899;51.546;6.912;2023-02-26T02:54:31;-3.10;99.90
13652;DHT22;6899;51.546;6.912;2023-02-26T02:57:18;-3.20;99.90
13652;DHT22;6899;51.546;6.912;2023-02-26T02:59:56;-3.20;99.90
13652;DHT22;6899;51.546;6.912;2023-02-26T03:02:50;-3.10;99.90
13652;DHT22;6899;51.546;6.912;2023-02-26T03:05:19;-3.10;99.90
13652;DHT22;6899;51.546;6.912;2023-02-26T03:07:48;-3.20;99.90
13652;DHT22;6899;51.546;6.912;2023-02-26T03:10:16;-3.20;99.90
13652;DHT22;6899;51.546;6.912;2023-02-26T03:12:43;-3.20;99.90
13652;DHT22;6899;51.546;6.912;2023-02-26T03:15:11;-3.20;99.90
13652;DHT22;6899;51.546;6.912;2023-02-26T03:17:45;-3.30;99.90
13652;DHT22;6899;51.546;6.912;2023-02-26T03:20:22;-3.30;99.90
13652;DHT22;6899;51.546;6.912;2023-02-26T03:22:56;-3.30;99.90
13652;DHT22;6899;51.546;6.912;2023-02-26T03:25:29;-3.40;99.90
13652;DHT22;6899;51.546;6.912;2023-02-26T03:28:07;-3.30;99.90
13652;DHT22;6899;51.546;6.912;2023-02-26T03:30:38;-3.30;99.90
13652;DHT22;6899;51.546;6.912;2023-02-26T03:33:12;-3.30;99.90
13652;DHT22;6899;51.546;6.912;2023-02-26T03:35:48;-3.50;99.90
13652;DHT22;6899;51.546;6.912;2023-02-26T03:38:22;-3.50;99.90
13652;DHT22;6899;51.546;6.912;2023-02-26T03:40:53;-3.50;99.90
13652;DHT22;6899;51.546;6.912;2023-02-26T03:43:23;-3.40;99.90
13652;DHT22;6899;51.546;6.912;2023-02-26T03:45:55;-3.30;99.90
13652;DHT22;6899;51.546;6.912;2023-02-26T03:48:26;-3.20;99.90
13652;DHT22;6899;51.546;6.912;2023-02-26T03:50:58;-3.30;99.90
13652;DHT22;6899;51.546;6.912;2023-02-26T03:53:28;-3.40;99.90
13652;DHT22;6899;51.546;6.912;2023-02-26T03:56:08;-3.50;99.90
13652;DHT22;6899;51.546;6.912;2023-02-26T03:58:39;-3.40;99.90
13652;DHT22;6899;51.546;6.912;2023-02-26T04:01:10;-3.40;99.90
13652;DHT22;6899;51.546;6.912;2023-02-26T04:03:45;-3.40;99.90
13652;DHT22;6899;51.546;6.912;2023-02-26T04:06:14;-3.60;99.90
13652;DHT22;6899;51.546;6.912;2023-02-26T04:08:45;-3.60;99.90
13652;DHT22;6899;51.546;6.912;2023-02-26T04:11:17;-3.60;99.90
13652;DHT22;6899;51.546;6.912;2023-02-26T04:13:45;-3.50;99.90
13652;DHT22;6899;51.546;6.912;2023-02-26T04:16:12;-3.60;99.90
13652;DHT22;6899;51.546;6.912;2023-02-26T04:18:40;-3.70;99.90
13652;DHT22;6899;51.546;6.912;2023-02-26T04:21:10;-3.60;99.90
13652;DHT22;6899;51.546;6.912;2023-02-26T04:23:38;-3.50;99.90
13652;DHT22;6899;51.546;6.912;2023-02-26T04:26:05;-3.60;99.90
13652;DHT22;6899;51.546;6.912;2023-02-26T04:28:32;-3.50;99.90
13652;DHT22;6899;51.546;6.912;2023-02-26T04:30:59;-3.50;99.90
13652;DHT22;6899;51.546;6.912;2023-02-26T04:33:26;-3.40;99.90
13652;DHT22;6899;51.546;6.912;2023-02-26T04:35:53;-3.50;99.90
13652;DHT22;6899;51.546;6.912;2023-02-26T04:38:19;-3.50;99.90
13652;DHT22;6899;51.546;6.912;2023-02-26T04:40:48;-3.50;99.90
13652;DHT22;6899;51.546;6.912;2023-02-26T04:43:15;-3.60;99.90
13652;DHT22;6899;51.546;6.912;2023-02-26T04:45:46;-3.60;99.90
13652;DHT22;6899;51.546;6.912;2023-02-26T04:48:13;-3.50;99.90
13652;DHT22;6899;51.546;6.912;2023-02-26T04:50:41;-3.40;99.90
13652;DHT22;6899;51.546;6.912;2023-02-26T04:53:08;-3.40;99.90
13652;DHT22;6899;51.546;6.912;2023-02-26T04:55:35;-3.40;99.90
13652;DHT22;6899;51.546;6.912;2023-02-26T04:58:03;-3.40;99.90
13652;DHT22;6899;51.546;6.912;2023-02-26T05:00:30;-3.50;99.90
13652;DHT22;6899;51.546;6.912;2023-02-26T05:02:57;-3.60;99.90
13652;DHT22;6899;51.546;6.912;2023-02-26T05:05:24;-3.60;99.90
13652;DHT22;6899;51.546;6.912;2023-02-26T05:07:51;-3.50;99.90
13652;DHT22;6899;51.546;6.912;2023-02-26T05:10:21;-3.50;99.90
13652;DHT22;6899;51.546;6.912;2023-02-26T05:12:48;-3.50;99.90
13652;DHT22;6899;51.546;6.912;2023-02-26T05:15:16;-3.50;99.90
13652;DHT22;6899;51.546;6.912;2023-02-26T05:17:43;-3.50;99.90
13652;DHT22;6899;51.546;6.912;2023-02-26T05:20:11;-3.50;99.90
13652;DHT22;6899;51.546;6.912;2023-02-26T05:22:40;-3.60;99.90
13652;DHT22;6899;51.546;6.912;2023-02-26T05:25:08;-3.60;99.90
13652;DHT22;6899;51.546;6.912;2023-02-26T05:27:36;-3.60;99.90
13652;DHT22;6899;51.546;6.912;2023-02-26T05:30:06;-3.60;99.90
13652;DHT22;6899;51.546;6.912;2023-02-26T05:32:35;-3.70;99.90
13652;DHT22;6899;51.546;6.912;2023-02-26T05:35:02;-3.60;99.90
13652;DHT22;6899;51.546;6.912;2023-02-26T05:37:29;-3.70;99.90
13652;DHT22;6899;51.546;6.912;2023-02-26T05:39:56;-3.70;99.90
13652;DHT22;6899;51.546;6.912;2023-02-26T05:42:23;-3.60;99.90
13652;DHT22;6899;51.546;6.912;2023-02-26T05:44:50;-3.60;99.90
13652;DHT22;6899;51.546;6.912;2023-02-26T05:47:17;-3.60;99.90
13652;DHT22;6899;51.546;6.912;2023-02-26T05:49:45;-3.60;99.90
13652;DHT22;6899;51.546;6.912;2023-02-26T05:52:12;-3.60;99.90
13652;DHT22;6899;51.546;6.912;2023-02-26T05:54:41;-3.70;99.90
13652;DHT22;6899;51.546;6.912;2023-02-26T05:57:08;-3.60;99.90
13652;DHT22;6899;51.546;6.912;2023-02-26T05:59:35;-3.50;99.90
13652;DHT22;6899;51.546;6.912;2023-02-26T06:02:03;-3.50;99.90
13652;DHT22;6899;51.546;6.912;2023-02-26T06:04:33;-3.60;99.90
13652;DHT22;6899;51.546;6.912;2023-02-26T06:07:01;-3.70;99.90
13652;DHT22;6899;51.546;6.912;2023-02-26T06:09:28;-3.60;99.90
13652;DHT22;6899;51.546;6.912;2023-02-26T06:11:55;-3.60;99.90
13652;DHT22;6899;51.546;6.912;2023-02-26T06:14:22;-3.60;99.90
13652;DHT22;6899;51.546;6.912;2023-02-26T06:16:49;-3.70;99.90
13652;DHT22;6899;51.546;6.912;2023-02-26T06:19:15;-3.80;99.90
13652;DHT22;6899;51.546;6.912;2023-02-26T06:21:42;-3.80;99.90
13652;DHT22;6899;51.546;6.912;2023-02-26T06:24:10;-3.80;99.90
13652;DHT22;6899;51.546;6.912;2023-02-26T06:26:37;-3.70;99.90
13652;DHT22;6899;51.546;6.912;2023-02-26T06:29:07;-3.70;99.90
13652;DHT22;6899;51.546;6.912;2023-02-26T06:31:33;-3.80;99.90
13652;DHT22;6899;51.546;6.912;2023-02-26T06:34:00;-3.80;99.90
13652;DHT22;6899;51.546;6.912;2023-02-26T06:36:27;-3.80;99.90
13652;DHT22;6899;51.546;6.912;2023-02-26T06:38:54;-3.70;99.90
13652;DHT22;6899;51.546;6.912;2023-02-26T06:41:22;-3.70;99.90
13652;DHT22;6899;51.546;6.912;2023-02-26T06:43:49;-3.60;99.90
13652;DHT22;6899;51.546;6.912;2023-02-26T06:46:16;-3.60;99.90
13652;DHT22;6899;51.546;6.912;2023-02-26T06:48:43;-3.40;99.90
13652;DHT22;6899;51.546;6.912;2023-02-26T06:51:10;-3.40;99.90
13652;DHT22;6899;51.546;6.912;2023-02-26T06:53:36;-3.40;99.90
13652;DHT22;6899;51.546;6.912;2023-02-26T06:56:09;-3.40;99.90
13652;DHT22;6899;51.546;6.912;2023-02-26T06:58:37;-3.30;99.90
13652;DHT22;6899;51.546;6.912;2023-02-26T07:01:04;-3.20;99.90
13652;DHT22;6899;51.546;6.912;2023-02-26T07:03:31;-3.00;99.90
13652;DHT22;6899;51.546;6.912;2023-02-26T07:05:58;-3.00;99.90
13652;DHT22;6899;51.546;6.912;2023-02-26T07:08:24;-2.90;99.90
13652;DHT22;6899;51.546;6.912;2023-02-26T07:10:51;-2.80;99.90
13652;DHT22;6899;51.546;6.912;2023-02-26T07:13:18;-2.80;99.90
13652;DHT22;6899;51.546;6.912;2023-02-26T07:15:46;-2.60;99.90
13652;DHT22;6899;51.546;6.912;2023-02-26T07:18:13;-2.50;99.90
13652;DHT22;6899;51.546;6.912;2023-02-26T07:20:40;-2.40;99.90
13652;DHT22;6899;51.546;6.912;2023-02-26T07:23:08;-2.30;99.90
13652;DHT22;6899;51.546;6.912;2023-02-26T07:25:34;-2.20;99.90
13652;DHT22;6899;51.546;6.912;2023-02-26T07:28:01;-2.10;99.90
13652;DHT22;6899;51.546;6.912;2023-02-26T07:30:28;-2.00;99.90
13652;DHT22;6899;51.546;6.912;2023-02-26T07:32:56;-1.90;99.90
13652;DHT22;6899;51.546;6.912;2023-02-26T07:35:24;-1.80;99.90
13652;DHT22;6899;51.546;6.912;2023-02-26T07:37:50;-1.80;99.90
13652;DHT22;6899;51.546;6.912;2023-02-26T07:40:18;-1.70;99.90
13652;DHT22;6899;51.546;6.912;2023-02-26T07:42:44;-1.60;99.90
13652;DHT22;6899;51.546;6.912;2023-02-26T07:45:11;-1.50;99.90
13652;DHT22;6899;51.546;6.912;2023-02-26T07:47:38;-1.40;99.90
13652;DHT22;6899;51.546;6.912;2023-02-26T07:50:07;-1.40;99.90
13652;DHT22;6899;51.546;6.912;2023-02-26T07:52:35;-1.30;99.90
13652;DHT22;6899;51.546;6.912;2023-02-26T07:55:02;-1.20;99.90
13652;DHT22;6899;51.546;6.912;2023-02-26T07:57:28;-1.10;99.90
13652;DHT22;6899;51.546;6.912;2023-02-26T07:59:58;-1.10;99.90
13652;DHT22;6899;51.546;6.912;2023-02-26T08:02:25;-1.00;99.90
13652;DHT22;6899;51.546;6.912;2023-02-26T08:04:52;-0.80;99.90
13652;DHT22;6899;51.546;6.912;2023-02-26T08:07:20;-0.70;99.90
13652;DHT22;6899;51.546;6.912;2023-02-26T08:09:47;-0.60;99.90
13652;DHT22;6899;51.546;6.912;2023-02-26T08:12:14;-0.50;99.90
13652;DHT22;6899;51.546;6.912;2023-02-26T08:14:40;-0.40;99.90
13652;DHT22;6899;51.546;6.912;2023-02-26T08:17:07;-0.30;99.90
13652;DHT22;6899;51.546;6.912;2023-02-26T08:19:36;-0.20;99.90
13652;DHT22;6899;51.546;6.912;2023-02-26T08:22:02;0.00;99.90
13652;DHT22;6899;51.546;6.912;2023-02-26T08:24:30;0.10;99.90
13652;DHT22;6899;51.546;6.912;2023-02-26T08:26:57;0.20;99.90
13652;DHT22;6899;51.546;6.912;2023-02-26T08:29:24;0.20;99.90
13652;DHT22;6899;51.546;6.912;2023-02-26T08:31:51;0.30;99.90
13652;DHT22;6899;51.546;6.912;2023-02-26T08:34:21;0.40;99.90
13652;DHT22;6899;51.546;6.912;2023-02-26T08:36:48;0.50;99.90
13652;DHT22;6899;51.546;6.912;2023-02-26T08:39:14;0.70;99.90
13652;DHT22;6899;51.546;6.912;2023-02-26T08:41:43;0.80;99.90
13652;DHT22;6899;51.546;6.912;2023-02-26T08:44:09;1.00;99.90
13652;DHT22;6899;51.546;6.912;2023-02-26T08:46:36;1.00;99.90
13652;DHT22;6899;51.546;6.912;2023-02-26T08:49:03;1.10;99.90
13652;DHT22;6899;51.546;6.912;2023-02-26T08:51:33;1.20;99.90
13652;DHT22;6899;51.546;6.912;2023-02-26T08:53:59;1.30;99.90
13652;DHT22;6899;51.546;6.912;2023-02-26T08:56:26;1.40;99.90
13652;DHT22;6899;51.546;6.912;2023-02-26T08:58:54;1.50;99.90
13652;DHT22;6899;51.546;6.912;2023-02-26T09:01:21;1.60;99.90
13652;DHT22;6899;51.546;6.912;2023-02-26T09:03:50;1.70;99.90
13652;DHT22;6899;51.546;6.912;2023-02-26T09:06:17;1.80;99.90
13652;DHT22;6899;51.546;6.912;2023-02-26T09:08:44;1.90;99.90
13652;DHT22;6899;51.546;6.912;2023-02-26T09:11:14;2.00;99.90
13652;DHT22;6899;51.546;6.912;2023-02-26T09:13:41;2.20;99.90
13652;DHT22;6899;51.546;6.912;2023-02-26T09:16:09;2.30;99.90
13652;DHT22;6899;51.546;6.912;2023-02-26T09:18:36;2.40;99.90
13652;DHT22;6899;51.546;6.912;2023-02-26T09:21:03;2.50;99.90
13652;DHT22;6899;51.546;6.912;2023-02-26T09:23:30;2.50;99.90
13652;DHT22;6899;51.546;6.912;2023-02-26T09:25:57;2.60;99.90
13652;DHT22;6899;51.546;6.912;2023-02-26T09:28:24;2.60;99.90
13652;DHT22;6899;51.546;6.912;2023-02-26T09:30:51;2.80;99.90
13652;DHT22;6899;51.546;6.912;2023-02-26T09:33:20;2.80;99.90
13652;DHT22;6899;51.546;6.912;2023-02-26T09:35:48;2.90;99.90
13652;DHT22;6899;51.546;6.912;2023-02-26T09:38:15;3.00;99.90
13652;DHT22;6899;51.546;6.912;2023-02-26T09:40:45;3.20;99.90
13652;DHT22;6899;51.546;6.912;2023-02-26T09:43:33;3.30;99.90
13652;DHT22;6899;51.546;6.912;2023-02-26T09:46:03;3.30;99.90
13652;DHT22;6899;51.546;6.912;2023-02-26T09:48:33;3.20;99.90
13652;DHT22;6899;51.546;6.912;2023-02-26T09:51:03;3.20;99.90
13652;DHT22;6899;51.546;6.912;2023-02-26T09:53:33;3.30;99.90
13652;DHT22;6899;51.546;6.912;2023-02-26T09:56:06;3.20;99.90
13652;DHT22;6899;51.546;6.912;2023-02-26T09:58:34;3.20;99.90
13652;DHT22;6899;51.546;6.912;2023-02-26T10:01:07;3.20;99.90
13652;DHT22;6899;51.546;6.912;2023-02-26T10:03:49;3.30;97.50
13652;DHT22;6899;51.546;6.912;2023-02-26T10:06:23;3.20;99.90
13652;DHT22;6899;51.546;6.912;2023-02-26T10:09:11;3.10;99.10
13652;DHT22;6899;51.546;6.912;2023-02-26T10:11:46;3.00;96.10
13652;DHT22;6899;51.546;6.912;2023-02-26T10:14:18;2.90;97.70
13652;DHT22;6899;51.546;6.912;2023-02-26T10:16:52;2.90;98.40
13652;DHT22;6899;51.546;6.912;2023-02-26T10:19:25;3.00;97.40
13652;DHT22;6899;51.546;6.912;2023-02-26T10:21:56;3.00;97.30
13652;DHT22;6899;51.546;6.912;2023-02-26T10:24:28;2.90;95.00
13652;DHT22;6899;51.546;6.912;2023-02-26T10:27:11;2.70;93.50
13652;DHT22;6899;51.546;6.912;2023-02-26T10:29:46;2.50;95.20
13652;DHT22;6899;51.546;6.912;2023-02-26T10:32:27;2.50;97.90
13652;DHT22;6899;51.546;6.912;2023-02-26T10:35:01;2.60;96.10
13652;DHT22;6899;51.546;6.912;2023-02-26T10:37:38;2.50;95.70
13652;DHT22;6899;51.546;6.912;2023-02-26T10:40:12;2.80;96.00
13652;DHT22;6899;51.546;6.912;2023-02-26T10:42:43;2.80;96.00
13652;DHT22;6899;51.546;6.912;2023-02-26T10:45:24;2.80;95.90
13652;DHT22;6899;51.546;6.912;2023-02-26T10:47:59;2.80;94.00
13652;DHT22;6899;51.546;6.912;2023-02-26T10:50:28;2.70;95.50
13652;DHT22;6899;51.546;6.912;2023-02-26T10:52:56;2.70;94.90
13652;DHT22;6899;51.546;6.912;2023-02-26T10:55:38;2.70;94.70
13652;DHT22;6899;51.546;6.912;2023-02-26T10:58:10;2.60;97.20
13652;DHT22;6899;51.546;6.912;2023-02-26T11:00:40;2.70;99.50
13652;DHT22;6899;51.546;6.912;2023-02-26T11:03:10;3.10;95.40
13652;DHT22;6899;51.546;6.912;2023-02-26T11:05:40;3.30;92.30
13652;DHT22;6899;51.546;6.912;2023-02-26T11:08:12;3.50;90.90
13652;DHT22;6899;51.546;6.912;2023-02-26T11:10:44;3.90;88.80
13652;DHT22;6899;51.546;6.912;2023-02-26T11:13:15;4.20;84.50
13652;DHT22;6899;51.546;6.912;2023-02-26T11:15:46;4.10;82.10
13652;DHT22;6899;51.546;6.912;2023-02-26T11:18:18;3.70;78.80
13652;DHT22;6899;51.546;6.912;2023-02-26T11:20:48;3.50;80.10
13652;DHT22;6899;51.546;6.912;2023-02-26T11:23:17;3.60;82.70
13652;DHT22;6899;51.546;6.912;2023-02-26T11:25:52;3.80;77.90
13652;DHT22;6899;51.546;6.912;2023-02-26T11:28:22;4.00;76.40
13652;DHT22;6899;51.546;6.912;2023-02-26T11:30:51;4.20;77.00
13652;DHT22;6899;51.546;6.912;2023-02-26T11:33:22;4.10;73.60
13652;DHT22;6899;51.546;6.912;2023-02-26T11:35:51;4.20;74.90
13652;DHT22;6899;51.546;6.912;2023-02-26T11:38:22;4.20;75.50
13652;DHT22;6899;51.546;6.912;2023-02-26T11:40:55;4.10;77.00
13652;DHT22;6899;51.546;6.912;2023-02-26T11:43:25;4.10;72.20
13652;DHT22;6899;51.546;6.912;2023-02-26T11:45:56;4.00;73.30
13652;DHT22;6899;51.546;6.912;2023-02-26T11:48:25;3.90;72.20
13652;DHT22;6899;51.546;6.912;2023-02-26T11:50:58;3.70;72.20
13652;DHT22;6899;51.546;6.912;2023-02-26T11:53:31;3.40;73.80
13652;DHT22;6899;51.546;6.912;2023-02-26T11:56:01;3.40;77.10
13652;DHT22;6899;51.546;6.912;2023-02-26T11:58:31;3.60;77.40
13652;DHT22;6899;51.546;6.912;2023-02-26T12:01:01;3.80;75.50
13652;DHT22;6899;51.546;6.912;2023-02-26T12:03:33;4.10;71.70
13652;DHT22;6899;51.546;6.912;2023-02-26T12:06:02;4.20;72.00
13652;DHT22;6899;51.546;6.912;2023-02-26T12:08:31;4.00;70.30
13652;DHT22;6899;51.546;6.912;2023-02-26T12:11:24;3.80;70.50
13652;DHT22;6899;51.546;6.912;2023-02-26T12:14:04;4.00;73.10
13652;DHT22;6899;51.546;6.912;2023-02-26T12:16:38;4.30;73.30
13652;DHT22;6899;51.546;6.912;2023-02-26T12:19:14;4.70;70.40
13652;DHT22;6899;51.546;6.912;2023-02-26T12:22:08;5.00;71.50
13652;DHT22;6899;51.546;6.912;2023-02-26T12:24:54;5.20;69.40
13652;DHT22;6899;51.546;6.912;2023-02-26T12:27:30;5.30;65.30
13652;DHT22;6899;51.546;6.912;2023-02-26T12:30:23;5.30;64.90
13652;DHT22;6899;51.546;6.912;2023-02-26T12:33:13;5.20;60.90
13652;DHT22;6899;51.546;6.912;2023-02-26T12:35:48;5.10;59.80
13652;DHT22;6899;51.546;6.912;2023-02-26T12:38:28;4.90;62.20
13652;DHT22;6899;51.546;6.912;2023-02-26T12:41:20;4.90;63.40
13652;DHT22;6899;51.546;6.912;2023-02-26T12:43:51;4.80;62.70
13652;DHT22;6899;51.546;6.912;2023-02-26T12:46:32;4.60;62.00
13652;DHT22;6899;51.546;6.912;2023-02-26T12:49:34;4.50;63.30
13652;DHT22;6899;51.546;6.912;2023-02-26T12:55:21;3.90;62.30
13652;DHT22;6899;51.546;6.912;2023-02-26T12:58:02;3.70;65.50
13652;DHT22;6899;51.546;6.912;2023-02-26T13:00:45;3.90;66.50
13652;DHT22;6899;51.546;6.912;2023-02-26T13:03:52;4.20;64.40
13652;DHT22;6899;51.546;6.912;2023-02-26T13:06:48;4.40;63.30
13652;DHT22;6899;51.546;6.912;2023-02-26T13:09:34;4.80;63.00
13652;DHT22;6899;51.546;6.912;2023-02-26T13:12:20;5.00;63.30
13652;DHT22;6899;51.546;6.912;2023-02-26T13:14:55;5.10;60.90
13652;DHT22;6899;51.546;6.912;2023-02-26T13:17:32;5.00;59.00
13652;DHT22;6899;51.546;6.912;2023-02-26T13:20:10;4.80;59.20
13652;DHT22;6899;51.546;6.912;2023-02-26T13:22:41;5.00;60.90
13652;DHT22;6899;51.546;6.912;2023-02-26T13:25:16;5.00;59.80
13652;DHT22;6899;51.546;6.912;2023-02-26T13:27:46;5.00;58.50
13652;DHT22;6899;51.546;6.912;2023-02-26T13:30:22;5.10;60.50
13652;DHT22;6899;51.546;6.912;2023-02-26T13:32:53;5.20;60.40
13652;DHT22;6899;51.546;6.912;2023-02-26T13:35:25;5.10;58.60
13652;DHT22;6899;51.546;6.912;2023-02-26T13:37:54;5.20;59.80
13652;DHT22;6899;51.546;6.912;2023-02-26T13:40:42;5.40;58.70
13652;DHT22;6899;51.546;6.912;2023-02-26T13:43:24;5.10;57.40
13652;DHT22;6899;51.546;6.912;2023-02-26T13:46:04;5.10;58.90
13652;DHT22;6899;51.546;6.912;2023-02-26T13:48:41;5.20;59.90
13652;DHT22;6899;51.546;6.912;2023-02-26T13:51:12;5.50;58.70
13652;DHT22;6899;51.546;6.912;2023-02-26T13:53:51;5.60;58.20
13652;DHT22;6899;51.546;6.912;2023-02-26T13:56:21;5.50;58.30
13652;DHT22;6899;51.546;6.912;2023-02-26T13:58:53;5.60;58.70
13652;DHT22;6899;51.546;6.912;2023-02-26T14:01:27;5.60;58.80
13652;DHT22;6899;51.546;6.912;2023-02-26T14:04:20;5.60;59.80
13652;DHT22;6899;51.546;6.912;2023-02-26T14:06:51;5.80;60.70
13652;DHT22;6899;51.546;6.912;2023-02-26T14:09:44;5.70;59.90
13652;DHT22;6899;51.546;6.912;2023-02-26T14:12:30;5.70;59.90
13652;DHT22;6899;51.546;6.912;2023-02-26T14:15:27;5.50;58.70
13652;DHT22;6899;51.546;6.912;2023-02-26T14:18:03;5.50;59.60
13652;DHT22;6899;51.546;6.912;2023-02-26T14:20:32;5.50;59.70
13652;DHT22;6899;51.546;6.912;2023-02-26T14:23:31;5.50;60.70
13652;DHT22;6899;51.546;6.912;2023-02-26T14:26:05;5.50;59.90
13652;DHT22;6899;51.546;6.912;2023-02-26T14:28:42;5.70;59.40
13652;DHT22;6899;51.546;6.912;2023-02-26T14:31:18;5.60;58.60
13652;DHT22;6899;51.546;6.912;2023-02-26T14:34:06;5.40;58.90
13652;DHT22;6899;51.546;6.912;2023-02-26T14:36:37;5.40;60.30
13652;DHT22;6899;51.546;6.912;2023-02-26T14:39:09;5.10;59.60
13652;DHT22;6899;51.546;6.912;2023-02-26T14:41:39;5.00;59.40
13652;DHT22;6899;51.546;6.912;2023-02-26T14:44:12;4.90;58.40
13652;DHT22;6899;51.546;6.912;2023-02-26T14:46:42;4.90;59.40
13652;DHT22;6899;51.546;6.912;2023-02-26T14:49:24;4.80;58.20
13652;DHT22;6899;51.546;6.912;2023-02-26T14:55:07;4.80;60.10
13652;DHT22;6899;51.546;6.912;2023-02-26T14:57:46;4.80;59.60
13652;DHT22;6899;51.546;6.912;2023-02-26T15:00:25;4.90;61.90
13652;DHT22;6899;51.546;6.912;2023-02-26T15:03:25;5.00;61.20
13652;DHT22;6899;51.546;6.912;2023-02-26T15:06:02;5.10;62.10
13652;DHT22;6899;51.546;6.912;2023-02-26T15:08:44;5.10;61.60
13652;DHT22;6899;51.546;6.912;2023-02-26T15:11:32;5.10;60.50
13652;DHT22;6899;51.546;6.912;2023-02-26T15:14:28;5.00;61.60
13652;DHT22;6899;51.546;6.912;2023-02-26T15:17:09;5.00;62.90
13652;DHT22;6899;51.546;6.912;2023-02-26T15:19:58;5.00;62.00
13652;DHT22;6899;51.546;6.912;2023-02-26T15:22:35;5.10;62.40
13652;DHT22;6899;51.546;6.912;2023-02-26T15:25:15;5.10;60.90
13652;DHT22;6899;51.546;6.912;2023-02-26T15:27:44;5.00;60.60
13652;DHT22;6899;51.546;6.912;2023-02-26T15:30:13;4.80;60.30
13652;DHT22;6899;51.546;6.912;2023-02-26T15:32:40;4.80;62.60
13652;DHT22;6899;51.546;6.912;2023-02-26T15:35:15;4.80;63.40
13652;DHT22;6899;51.546;6.912;2023-02-26T15:37:41;4.80;62.80
13652;DHT22;6899;51.546;6.912;2023-02-26T15:40:10;4.80;63.20
13652;DHT22;6899;51.546;6.912;2023-02-26T15:42:39;4.80;62.50
13652;DHT22;6899;51.546;6.912;2023-02-26T15:45:12;4.80;62.70
13652;DHT22;6899;51.546;6.912;2023-02-26T15:47:41;4.70;62.80
13652;DHT22;6899;51.546;6.912;2023-02-26T15:50:15;4.70;62.30
13652;DHT22;6899;51.546;6.912;2023-02-26T15:52:42;4.50;62.20
13652;DHT22;6899;51.546;6.912;2023-02-26T15:55:15;4.40;62.20
13652;DHT22;6899;51.546;6.912;2023-02-26T15:57:43;4.30;62.80
13652;DHT22;6899;51.546;6.912;2023-02-26T16:00:15;4.30;62.50
13652;DHT22;6899;51.546;6.912;2023-02-26T16:02:49;4.30;63.00
13652;DHT22;6899;51.546;6.912;2023-02-26T16:05:19;4.20;63.50
13652;DHT22;6899;51.546;6.912;2023-02-26T16:07:46;4.10;63.30
13652;DHT22;6899;51.546;6.912;2023-02-26T16:10:17;4.00;63.80
13652;DHT22;6899;51.546;6.912;2023-02-26T16:12:45;3.90;65.10
13652;DHT22;6899;51.546;6.912;2023-02-26T16:15:19;3.80;64.80
13652;DHT22;6899;51.546;6.912;2023-02-26T16:17:49;3.80;65.60
13652;DHT22;6899;51.546;6.912;2023-02-26T16:20:21;3.70;66.40
13652;DHT22;6899;51.546;6.912;2023-02-26T16:22:52;3.60;67.30
13652;DHT22;6899;51.546;6.912;2023-02-26T16:25:23;3.60;68.10
13652;DHT22;6899;51.546;6.912;2023-02-26T16:27:56;3.60;68.80
13652;DHT22;6899;51.546;6.912;2023-02-26T16:30:26;3.60;67.20
13652;DHT22;6899;51.546;6.912;2023-02-26T16:32:56;3.50;67.40